X  Sluiten METAR luchtvaart weer gegevens      EHBK Maastricht Aachen Airport
Temperatuur
6°C Temperatuur
3°C Dauwpunt
81% Vochtigheid



Wind
3 M/S
6 MPH
10 KM/U
5 KTS



310°
NW
Huidig weer

Wat bewolking Wat bewolking
Luchtdruk 1007.79 (hPa) - 29.76 (inHg)
Zicht 6 (mijl) - 9.7 (km)
Vliegveld
Vliegveld code EHBK

Locatie : Maastricht Aachen Airport
Afstand: 26 (km)

Metar:
EHBK 241755Z AUTO 31005KT 270V010 9999 FEW041 SCT045 06/03 Q1008 NOSIG

Tijd: 24-04-2024 19:55 CEST